sensor_id;sensor_type;location;lat;lon;timestamp;temperature;humidity
21123;DHT22;10719;48.130;11.630;2024-03-25T00:01:41;3.40;99.90
21123;DHT22;10719;48.130;11.630;2024-03-25T00:04:06;3.50;99.90
21123;DHT22;10719;48.130;11.630;2024-03-25T00:06:32;3.50;99.90
21123;DHT22;10719;48.130;11.630;2024-03-25T00:09:02;3.50;99.90
21123;DHT22;10719;48.130;11.630;2024-03-25T00:11:28;3.60;99.90
21123;DHT22;10719;48.130;11.630;2024-03-25T00:13:54;3.50;99.90
21123;DHT22;10719;48.130;11.630;2024-03-25T00:16:19;3.50;99.90
21123;DHT22;10719;48.130;11.630;2024-03-25T00:18:45;3.60;99.90
21123;DHT22;10719;48.130;11.630;2024-03-25T00:21:11;3.60;99.90
21123;DHT22;10719;48.130;11.630;2024-03-25T00:23:36;3.60;99.90
21123;DHT22;10719;48.130;11.630;2024-03-25T00:26:02;3.60;99.90
21123;DHT22;10719;48.130;11.630;2024-03-25T00:28:27;3.60;99.90
21123;DHT22;10719;48.130;11.630;2024-03-25T00:30:53;3.60;99.90
21123;DHT22;10719;48.130;11.630;2024-03-25T00:33:19;3.60;99.90
21123;DHT22;10719;48.130;11.630;2024-03-25T00:35:44;3.60;99.90
21123;DHT22;10719;48.130;11.630;2024-03-25T00:38:11;3.50;99.90
21123;DHT22;10719;48.130;11.630;2024-03-25T00:40:37;3.50;99.90
21123;DHT22;10719;48.130;11.630;2024-03-25T00:43:03;3.50;99.90
21123;DHT22;10719;48.130;11.630;2024-03-25T00:45:29;3.50;99.90
21123;DHT22;10719;48.130;11.630;2024-03-25T00:47:59;3.50;99.90
21123;DHT22;10719;48.130;11.630;2024-03-25T00:50:25;3.50;99.90
21123;DHT22;10719;48.130;11.630;2024-03-25T00:52:51;3.50;99.90
21123;DHT22;10719;48.130;11.630;2024-03-25T00:55:17;3.50;99.90
21123;DHT22;10719;48.130;11.630;2024-03-25T00:57:42;3.50;99.90
21123;DHT22;10719;48.130;11.630;2024-03-25T01:00:09;3.50;99.90
21123;DHT22;10719;48.130;11.630;2024-03-25T01:02:35;3.50;99.90
21123;DHT22;10719;48.130;11.630;2024-03-25T01:05:00;3.50;99.90
21123;DHT22;10719;48.130;11.630;2024-03-25T01:07:26;3.50;99.90
21123;DHT22;10719;48.130;11.630;2024-03-25T01:09:51;3.40;99.90
21123;DHT22;10719;48.130;11.630;2024-03-25T01:12:17;3.40;99.90
21123;DHT22;10719;48.130;11.630;2024-03-25T01:14:43;3.30;99.90
21123;DHT22;10719;48.130;11.630;2024-03-25T01:17:08;3.30;99.90
21123;DHT22;10719;48.130;11.630;2024-03-25T01:19:34;3.20;99.90
21123;DHT22;10719;48.130;11.630;2024-03-25T01:21:59;3.30;99.90
21123;DHT22;10719;48.130;11.630;2024-03-25T01:24:25;3.20;99.90
21123;DHT22;10719;48.130;11.630;2024-03-25T01:26:50;3.20;99.90
21123;DHT22;10719;48.130;11.630;2024-03-25T01:29:16;3.20;99.90
21123;DHT22;10719;48.130;11.630;2024-03-25T01:31:43;3.30;99.90
21123;DHT22;10719;48.130;11.630;2024-03-25T01:34:09;3.30;99.90
21123;DHT22;10719;48.130;11.630;2024-03-25T01:36:35;3.30;99.90
21123;DHT22;10719;48.130;11.630;2024-03-25T01:39:00;3.30;99.90
21123;DHT22;10719;48.130;11.630;2024-03-25T01:41:26;3.30;99.90
21123;DHT22;10719;48.130;11.630;2024-03-25T01:43:52;3.30;99.90
21123;DHT22;10719;48.130;11.630;2024-03-25T01:46:18;3.30;99.90
21123;DHT22;10719;48.130;11.630;2024-03-25T01:48:45;3.30;99.90
21123;DHT22;10719;48.130;11.630;2024-03-25T01:51:12;3.20;99.90
21123;DHT22;10719;48.130;11.630;2024-03-25T01:53:39;3.30;99.90
21123;DHT22;10719;48.130;11.630;2024-03-25T01:56:05;3.30;99.90
21123;DHT22;10719;48.130;11.630;2024-03-25T01:58:31;3.30;99.90
21123;DHT22;10719;48.130;11.630;2024-03-25T02:00:58;3.30;99.90
21123;DHT22;10719;48.130;11.630;2024-03-25T02:03:26;3.30;99.90
21123;DHT22;10719;48.130;11.630;2024-03-25T02:05:55;3.20;99.90
21123;DHT22;10719;48.130;11.630;2024-03-25T02:08:22;3.30;99.90
21123;DHT22;10719;48.130;11.630;2024-03-25T02:10:49;3.20;99.90
21123;DHT22;10719;48.130;11.630;2024-03-25T02:13:16;3.20;99.90
21123;DHT22;10719;48.130;11.630;2024-03-25T02:15:42;3.20;99.90
21123;DHT22;10719;48.130;11.630;2024-03-25T02:18:08;3.20;99.90
21123;DHT22;10719;48.130;11.630;2024-03-25T02:20:34;3.30;99.90
21123;DHT22;10719;48.130;11.630;2024-03-25T02:22:59;3.20;99.90
21123;DHT22;10719;48.130;11.630;2024-03-25T02:25:25;3.20;99.90
21123;DHT22;10719;48.130;11.630;2024-03-25T02:27:51;3.20;99.90
21123;DHT22;10719;48.130;11.630;2024-03-25T02:30:16;3.20;99.90
21123;DHT22;10719;48.130;11.630;2024-03-25T02:32:42;3.20;99.90
21123;DHT22;10719;48.130;11.630;2024-03-25T02:35:12;3.30;99.90
21123;DHT22;10719;48.130;11.630;2024-03-25T02:37:39;3.20;99.90
21123;DHT22;10719;48.130;11.630;2024-03-25T02:40:06;3.30;99.90
21123;DHT22;10719;48.130;11.630;2024-03-25T02:42:36;3.30;99.90
21123;DHT22;10719;48.130;11.630;2024-03-25T02:45:02;3.30;99.90
21123;DHT22;10719;48.130;11.630;2024-03-25T02:47:29;3.30;99.90
21123;DHT22;10719;48.130;11.630;2024-03-25T02:49:54;3.30;99.90
21123;DHT22;10719;48.130;11.630;2024-03-25T02:52:20;3.30;99.90
21123;DHT22;10719;48.130;11.630;2024-03-25T02:54:46;3.30;99.90
21123;DHT22;10719;48.130;11.630;2024-03-25T02:57:12;3.30;99.90
21123;DHT22;10719;48.130;11.630;2024-03-25T02:59:37;3.30;99.90
21123;DHT22;10719;48.130;11.630;2024-03-25T03:02:03;3.30;99.90
21123;DHT22;10719;48.130;11.630;2024-03-25T03:04:28;3.40;99.90
21123;DHT22;10719;48.130;11.630;2024-03-25T03:06:54;3.40;99.90
21123;DHT22;10719;48.130;11.630;2024-03-25T03:09:19;3.40;99.90
21123;DHT22;10719;48.130;11.630;2024-03-25T03:11:45;3.40;99.90
21123;DHT22;10719;48.130;11.630;2024-03-25T03:14:11;3.40;99.90
21123;DHT22;10719;48.130;11.630;2024-03-25T03:16:36;3.40;99.90
21123;DHT22;10719;48.130;11.630;2024-03-25T03:19:02;3.30;99.90
21123;DHT22;10719;48.130;11.630;2024-03-25T03:21:27;3.40;99.90
21123;DHT22;10719;48.130;11.630;2024-03-25T03:23:53;3.40;99.90
21123;DHT22;10719;48.130;11.630;2024-03-25T03:26:19;3.40;99.90
21123;DHT22;10719;48.130;11.630;2024-03-25T03:28:44;3.40;99.90
21123;DHT22;10719;48.130;11.630;2024-03-25T03:31:10;3.40;99.90
21123;DHT22;10719;48.130;11.630;2024-03-25T03:33:35;3.40;99.90
21123;DHT22;10719;48.130;11.630;2024-03-25T03:36:01;3.40;99.90
21123;DHT22;10719;48.130;11.630;2024-03-25T03:38:26;3.40;99.90
21123;DHT22;10719;48.130;11.630;2024-03-25T03:41:02;3.40;99.90
21123;DHT22;10719;48.130;11.630;2024-03-25T03:43:28;3.40;99.90
21123;DHT22;10719;48.130;11.630;2024-03-25T03:45:54;3.40;99.90
21123;DHT22;10719;48.130;11.630;2024-03-25T03:48:20;3.40;99.90
21123;DHT22;10719;48.130;11.630;2024-03-25T03:50:46;3.30;99.90
21123;DHT22;10719;48.130;11.630;2024-03-25T03:53:11;3.30;99.90
21123;DHT22;10719;48.130;11.630;2024-03-25T03:55:37;3.20;99.90
21123;DHT22;10719;48.130;11.630;2024-03-25T03:58:03;3.20;99.90
21123;DHT22;10719;48.130;11.630;2024-03-25T04:00:29;3.10;99.90
21123;DHT22;10719;48.130;11.630;2024-03-25T04:02:54;3.10;99.90
21123;DHT22;10719;48.130;11.630;2024-03-25T04:05:20;3.00;99.90
21123;DHT22;10719;48.130;11.630;2024-03-25T04:07:46;3.00;99.90
21123;DHT22;10719;48.130;11.630;2024-03-25T04:10:11;2.90;99.90
21123;DHT22;10719;48.130;11.630;2024-03-25T04:12:38;2.90;99.90
21123;DHT22;10719;48.130;11.630;2024-03-25T04:15:04;2.90;99.90
21123;DHT22;10719;48.130;11.630;2024-03-25T04:17:30;2.80;99.90
21123;DHT22;10719;48.130;11.630;2024-03-25T04:19:59;2.80;99.90
21123;DHT22;10719;48.130;11.630;2024-03-25T04:22:25;2.80;99.90
21123;DHT22;10719;48.130;11.630;2024-03-25T04:24:51;2.70;99.90
21123;DHT22;10719;48.130;11.630;2024-03-25T04:27:17;2.70;99.90
21123;DHT22;10719;48.130;11.630;2024-03-25T04:29:46;2.70;99.90
21123;DHT22;10719;48.130;11.630;2024-03-25T04:32:12;2.60;99.90
21123;DHT22;10719;48.130;11.630;2024-03-25T04:34:37;2.60;99.90
21123;DHT22;10719;48.130;11.630;2024-03-25T04:37:03;2.60;99.90
21123;DHT22;10719;48.130;11.630;2024-03-25T04:39:30;2.60;99.90
21123;DHT22;10719;48.130;11.630;2024-03-25T04:41:55;2.60;99.90
21123;DHT22;10719;48.130;11.630;2024-03-25T04:44:21;2.50;99.90
21123;DHT22;10719;48.130;11.630;2024-03-25T04:46:47;2.60;99.90
21123;DHT22;10719;48.130;11.630;2024-03-25T04:49:13;2.60;99.90
21123;DHT22;10719;48.130;11.630;2024-03-25T04:51:38;2.50;99.90
21123;DHT22;10719;48.130;11.630;2024-03-25T04:54:05;2.50;99.90
21123;DHT22;10719;48.130;11.630;2024-03-25T04:56:30;2.50;99.90
21123;DHT22;10719;48.130;11.630;2024-03-25T04:58:57;2.50;99.90
21123;DHT22;10719;48.130;11.630;2024-03-25T05:01:27;2.50;99.90
21123;DHT22;10719;48.130;11.630;2024-03-25T05:03:53;2.50;99.90
21123;DHT22;10719;48.130;11.630;2024-03-25T05:06:18;2.50;99.90
21123;DHT22;10719;48.130;11.630;2024-03-25T05:08:44;2.50;99.90
21123;DHT22;10719;48.130;11.630;2024-03-25T05:11:09;2.50;99.90
21123;DHT22;10719;48.130;11.630;2024-03-25T05:13:35;2.50;99.90
21123;DHT22;10719;48.130;11.630;2024-03-25T05:16:01;2.60;99.90
21123;DHT22;10719;48.130;11.630;2024-03-25T05:18:26;2.60;99.90
21123;DHT22;10719;48.130;11.630;2024-03-25T05:20:52;2.50;99.90
21123;DHT22;10719;48.130;11.630;2024-03-25T05:23:18;2.50;99.90
21123;DHT22;10719;48.130;11.630;2024-03-25T05:25:43;2.50;99.90
21123;DHT22;10719;48.130;11.630;2024-03-25T05:28:09;2.60;99.90
21123;DHT22;10719;48.130;11.630;2024-03-25T05:30:34;2.60;99.90
21123;DHT22;10719;48.130;11.630;2024-03-25T05:35:34;2.60;99.90
21123;DHT22;10719;48.130;11.630;2024-03-25T05:38:02;2.60;99.90
21123;DHT22;10719;48.130;11.630;2024-03-25T05:40:29;2.60;99.90
21123;DHT22;10719;48.130;11.630;2024-03-25T05:42:54;2.60;99.90
21123;DHT22;10719;48.130;11.630;2024-03-25T05:45:20;2.70;99.90
21123;DHT22;10719;48.130;11.630;2024-03-25T05:47:46;2.70;99.90
21123;DHT22;10719;48.130;11.630;2024-03-25T05:50:11;2.70;99.90
21123;DHT22;10719;48.130;11.630;2024-03-25T05:52:37;2.80;99.90
21123;DHT22;10719;48.130;11.630;2024-03-25T05:55:03;2.80;99.90
21123;DHT22;10719;48.130;11.630;2024-03-25T05:57:29;2.80;99.90
21123;DHT22;10719;48.130;11.630;2024-03-25T05:59:54;2.80;99.90
21123;DHT22;10719;48.130;11.630;2024-03-25T06:02:20;2.80;99.90
21123;DHT22;10719;48.130;11.630;2024-03-25T06:04:45;2.90;99.90
21123;DHT22;10719;48.130;11.630;2024-03-25T06:07:11;2.90;99.90
21123;DHT22;10719;48.130;11.630;2024-03-25T06:09:37;2.90;99.90
21123;DHT22;10719;48.130;11.630;2024-03-25T06:12:03;2.90;99.90
21123;DHT22;10719;48.130;11.630;2024-03-25T06:14:28;2.90;99.90
21123;DHT22;10719;48.130;11.630;2024-03-25T06:16:54;3.00;99.90
21123;DHT22;10719;48.130;11.630;2024-03-25T06:19:19;3.00;99.90
21123;DHT22;10719;48.130;11.630;2024-03-25T06:21:45;3.00;99.90
21123;DHT22;10719;48.130;11.630;2024-03-25T06:24:11;3.10;99.90
21123;DHT22;10719;48.130;11.630;2024-03-25T06:26:36;3.10;99.90
21123;DHT22;10719;48.130;11.630;2024-03-25T06:29:02;3.20;99.90
21123;DHT22;10719;48.130;11.630;2024-03-25T06:31:28;3.20;99.90
21123;DHT22;10719;48.130;11.630;2024-03-25T06:34:12;3.30;99.90
21123;DHT22;10719;48.130;11.630;2024-03-25T06:36:47;3.40;99.90
21123;DHT22;10719;48.130;11.630;2024-03-25T06:39:13;3.50;99.90
21123;DHT22;10719;48.130;11.630;2024-03-25T06:41:39;3.50;99.90
21123;DHT22;10719;48.130;11.630;2024-03-25T06:44:04;3.50;99.90
21123;DHT22;10719;48.130;11.630;2024-03-25T06:46:31;3.50;99.90
21123;DHT22;10719;48.130;11.630;2024-03-25T06:48:57;3.50;99.90
21123;DHT22;10719;48.130;11.630;2024-03-25T06:51:22;3.70;99.90
21123;DHT22;10719;48.130;11.630;2024-03-25T06:53:48;3.80;99.90
21123;DHT22;10719;48.130;11.630;2024-03-25T06:56:14;3.90;99.90
21123;DHT22;10719;48.130;11.630;2024-03-25T06:58:39;4.00;99.90
21123;DHT22;10719;48.130;11.630;2024-03-25T07:01:07;4.10;99.90
21123;DHT22;10719;48.130;11.630;2024-03-25T07:03:33;4.20;99.90
21123;DHT22;10719;48.130;11.630;2024-03-25T07:05:59;4.30;99.90
21123;DHT22;10719;48.130;11.630;2024-03-25T07:08:26;4.40;99.90
21123;DHT22;10719;48.130;11.630;2024-03-25T07:10:52;4.50;99.90
21123;DHT22;10719;48.130;11.630;2024-03-25T07:13:18;4.60;99.90
21123;DHT22;10719;48.130;11.630;2024-03-25T07:15:44;4.70;99.90
21123;DHT22;10719;48.130;11.630;2024-03-25T07:18:10;4.80;99.90
21123;DHT22;10719;48.130;11.630;2024-03-25T07:20:42;4.90;99.90
21123;DHT22;10719;48.130;11.630;2024-03-25T07:23:09;5.00;99.90
21123;DHT22;10719;48.130;11.630;2024-03-25T07:25:34;5.10;99.90
21123;DHT22;10719;48.130;11.630;2024-03-25T07:28:01;5.00;99.90
21123;DHT22;10719;48.130;11.630;2024-03-25T07:30:27;4.90;99.90
21123;DHT22;10719;48.130;11.630;2024-03-25T07:32:56;4.90;99.90
21123;DHT22;10719;48.130;11.630;2024-03-25T07:35:22;4.80;99.90
21123;DHT22;10719;48.130;11.630;2024-03-25T07:37:48;4.80;99.90
21123;DHT22;10719;48.130;11.630;2024-03-25T07:40:20;4.90;99.90
21123;DHT22;10719;48.130;11.630;2024-03-25T07:42:45;5.00;99.90
21123;DHT22;10719;48.130;11.630;2024-03-25T07:45:11;5.00;99.90
21123;DHT22;10719;48.130;11.630;2024-03-25T07:47:37;5.00;99.90
21123;DHT22;10719;48.130;11.630;2024-03-25T07:50:03;5.00;99.90
21123;DHT22;10719;48.130;11.630;2024-03-25T07:52:29;5.10;99.90
21123;DHT22;10719;48.130;11.630;2024-03-25T07:54:55;5.20;99.90
21123;DHT22;10719;48.130;11.630;2024-03-25T07:57:21;5.10;99.90
21123;DHT22;10719;48.130;11.630;2024-03-25T07:59:47;5.20;99.90
21123;DHT22;10719;48.130;11.630;2024-03-25T08:02:13;5.20;99.90
21123;DHT22;10719;48.130;11.630;2024-03-25T08:04:39;5.10;99.90
21123;DHT22;10719;48.130;11.630;2024-03-25T08:07:05;5.20;99.90
21123;DHT22;10719;48.130;11.630;2024-03-25T08:09:31;5.30;99.90
21123;DHT22;10719;48.130;11.630;2024-03-25T08:11:56;5.40;99.90
21123;DHT22;10719;48.130;11.630;2024-03-25T08:14:22;5.60;99.90
21123;DHT22;10719;48.130;11.630;2024-03-25T08:16:48;5.80;99.90
21123;DHT22;10719;48.130;11.630;2024-03-25T08:19:14;6.00;99.90
21123;DHT22;10719;48.130;11.630;2024-03-25T08:21:40;6.00;99.90
21123;DHT22;10719;48.130;11.630;2024-03-25T08:24:06;6.10;99.90
21123;DHT22;10719;48.130;11.630;2024-03-25T08:26:31;6.30;99.90
21123;DHT22;10719;48.130;11.630;2024-03-25T08:28:57;6.30;99.90
21123;DHT22;10719;48.130;11.630;2024-03-25T08:31:23;6.30;99.90
21123;DHT22;10719;48.130;11.630;2024-03-25T08:33:48;6.50;99.90
21123;DHT22;10719;48.130;11.630;2024-03-25T08:36:14;6.60;99.90
21123;DHT22;10719;48.130;11.630;2024-03-25T08:38:39;6.50;99.90
21123;DHT22;10719;48.130;11.630;2024-03-25T08:41:05;6.40;99.90
21123;DHT22;10719;48.130;11.630;2024-03-25T08:43:30;6.40;99.90
21123;DHT22;10719;48.130;11.630;2024-03-25T08:45:56;6.40;99.90
21123;DHT22;10719;48.130;11.630;2024-03-25T08:48:23;6.50;99.90
21123;DHT22;10719;48.130;11.630;2024-03-25T08:50:48;6.50;99.90
21123;DHT22;10719;48.130;11.630;2024-03-25T08:53:14;6.50;99.90
21123;DHT22;10719;48.130;11.630;2024-03-25T08:55:47;6.60;99.90
21123;DHT22;10719;48.130;11.630;2024-03-25T08:58:16;6.70;99.90
21123;DHT22;10719;48.130;11.630;2024-03-25T09:00:43;6.80;99.90
21123;DHT22;10719;48.130;11.630;2024-03-25T09:03:09;7.00;99.90
21123;DHT22;10719;48.130;11.630;2024-03-25T09:05:36;7.10;99.90
21123;DHT22;10719;48.130;11.630;2024-03-25T09:08:05;7.20;99.90
21123;DHT22;10719;48.130;11.630;2024-03-25T09:10:31;7.30;99.90
21123;DHT22;10719;48.130;11.630;2024-03-25T09:13:15;7.60;99.90
21123;DHT22;10719;48.130;11.630;2024-03-25T09:15:41;8.50;99.90
21123;DHT22;10719;48.130;11.630;2024-03-25T09:18:07;9.00;99.90
21123;DHT22;10719;48.130;11.630;2024-03-25T09:20:32;9.10;99.90
21123;DHT22;10719;48.130;11.630;2024-03-25T09:22:58;9.50;99.90
21123;DHT22;10719;48.130;11.630;2024-03-25T09:25:23;10.00;99.90
21123;DHT22;10719;48.130;11.630;2024-03-25T09:27:49;11.40;99.90
21123;DHT22;10719;48.130;11.630;2024-03-25T09:30:16;12.30;99.90
21123;DHT22;10719;48.130;11.630;2024-03-25T09:32:42;11.10;99.90
21123;DHT22;10719;48.130;11.630;2024-03-25T09:35:08;10.40;99.90
21123;DHT22;10719;48.130;11.630;2024-03-25T09:37:34;11.00;99.90
21123;DHT22;10719;48.130;11.630;2024-03-25T09:40:00;11.50;99.90
21123;DHT22;10719;48.130;11.630;2024-03-25T09:42:27;11.40;99.90
21123;DHT22;10719;48.130;11.630;2024-03-25T09:44:56;11.70;99.90
21123;DHT22;10719;48.130;11.630;2024-03-25T09:47:22;13.00;99.90
21123;DHT22;10719;48.130;11.630;2024-03-25T09:49:49;12.60;99.90
21123;DHT22;10719;48.130;11.630;2024-03-25T09:52:15;11.40;99.90
21123;DHT22;10719;48.130;11.630;2024-03-25T09:54:41;9.80;99.90
21123;DHT22;10719;48.130;11.630;2024-03-25T09:57:08;10.40;99.90
21123;DHT22;10719;48.130;11.630;2024-03-25T09:59:34;10.20;99.90
21123;DHT22;10719;48.130;11.630;2024-03-25T10:02:01;10.70;99.90
21123;DHT22;10719;48.130;11.630;2024-03-25T10:04:27;11.70;99.90
21123;DHT22;10719;48.130;11.630;2024-03-25T10:06:53;11.60;99.90
21123;DHT22;10719;48.130;11.630;2024-03-25T10:09:22;11.40;99.90
21123;DHT22;10719;48.130;11.630;2024-03-25T10:11:49;11.20;99.90
21123;DHT22;10719;48.130;11.630;2024-03-25T10:14:18;11.00;99.90
21123;DHT22;10719;48.130;11.630;2024-03-25T10:16:48;11.00;99.90
21123;DHT22;10719;48.130;11.630;2024-03-25T10:19:14;11.00;99.90
21123;DHT22;10719;48.130;11.630;2024-03-25T10:21:40;10.50;99.90
21123;DHT22;10719;48.130;11.630;2024-03-25T10:24:06;10.60;99.90
21123;DHT22;10719;48.130;11.630;2024-03-25T10:26:32;9.80;99.90
21123;DHT22;10719;48.130;11.630;2024-03-25T10:29:07;9.10;99.90
21123;DHT22;10719;48.130;11.630;2024-03-25T10:31:34;8.70;99.90
21123;DHT22;10719;48.130;11.630;2024-03-25T10:34:00;8.90;99.90
21123;DHT22;10719;48.130;11.630;2024-03-25T10:36:26;10.10;99.90
21123;DHT22;10719;48.130;11.630;2024-03-25T10:38:55;11.70;99.90
21123;DHT22;10719;48.130;11.630;2024-03-25T10:41:22;13.20;99.90
21123;DHT22;10719;48.130;11.630;2024-03-25T10:43:49;13.90;99.90
21123;DHT22;10719;48.130;11.630;2024-03-25T10:46:19;14.10;99.90
21123;DHT22;10719;48.130;11.630;2024-03-25T10:48:53;15.70;99.90
21123;DHT22;10719;48.130;11.630;2024-03-25T10:51:21;14.80;99.90
21123;DHT22;10719;48.130;11.630;2024-03-25T10:53:51;14.30;99.90
21123;DHT22;10719;48.130;11.630;2024-03-25T10:56:20;15.30;99.90
21123;DHT22;10719;48.130;11.630;2024-03-25T10:58:48;15.20;99.90
21123;DHT22;10719;48.130;11.630;2024-03-25T11:01:16;15.10;99.90
21123;DHT22;10719;48.130;11.630;2024-03-25T11:03:42;13.90;99.90
21123;DHT22;10719;48.130;11.630;2024-03-25T11:06:07;14.00;99.90
21123;DHT22;10719;48.130;11.630;2024-03-25T11:08:33;13.50;99.90
21123;DHT22;10719;48.130;11.630;2024-03-25T11:10:59;12.30;99.90
21123;DHT22;10719;48.130;11.630;2024-03-25T11:13:27;12.10;99.90
21123;DHT22;10719;48.130;11.630;2024-03-25T11:15:53;11.90;99.90
21123;DHT22;10719;48.130;11.630;2024-03-25T11:18:24;12.80;99.90
21123;DHT22;10719;48.130;11.630;2024-03-25T11:21:07;13.10;99.90
21123;DHT22;10719;48.130;11.630;2024-03-25T11:23:41;14.20;99.90
21123;DHT22;10719;48.130;11.630;2024-03-25T11:26:21;14.90;99.90
21123;DHT22;10719;48.130;11.630;2024-03-25T11:28:50;15.60;99.90
21123;DHT22;10719;48.130;11.630;2024-03-25T11:31:20;16.10;99.90
21123;DHT22;10719;48.130;11.630;2024-03-25T11:33:47;16.40;99.90
21123;DHT22;10719;48.130;11.630;2024-03-25T11:36:12;15.10;99.90
21123;DHT22;10719;48.130;11.630;2024-03-25T11:38:38;16.30;99.90
21123;DHT22;10719;48.130;11.630;2024-03-25T11:41:07;17.40;99.90
21123;DHT22;10719;48.130;11.630;2024-03-25T11:43:33;17.10;99.90
21123;DHT22;10719;48.130;11.630;2024-03-25T11:45:59;17.30;99.90
21123;DHT22;10719;48.130;11.630;2024-03-25T11:48:24;17.40;99.90
21123;DHT22;10719;48.130;11.630;2024-03-25T11:50:50;17.50;99.90
21123;DHT22;10719;48.130;11.630;2024-03-25T11:53:16;17.80;99.90
21123;DHT22;10719;48.130;11.630;2024-03-25T11:55:46;18.20;99.60
21123;DHT22;10719;48.130;11.630;2024-03-25T11:58:14;18.20;97.70
21123;DHT22;10719;48.130;11.630;2024-03-25T12:00:47;17.50;98.80
21123;DHT22;10719;48.130;11.630;2024-03-25T12:03:16;17.40;99.20
21123;DHT22;10719;48.130;11.630;2024-03-25T12:05:45;17.90;98.60
21123;DHT22;10719;48.130;11.630;2024-03-25T12:08:11;18.60;98.30
21123;DHT22;10719;48.130;11.630;2024-03-25T12:10:38;19.50;97.60
21123;DHT22;10719;48.130;11.630;2024-03-25T12:13:23;19.20;97.70
21123;DHT22;10719;48.130;11.630;2024-03-25T12:15:53;19.00;99.90
21123;DHT22;10719;48.130;11.630;2024-03-25T12:18:20;18.00;98.20
21123;DHT22;10719;48.130;11.630;2024-03-25T12:20:46;18.00;98.30
21123;DHT22;10719;48.130;11.630;2024-03-25T12:23:11;18.20;98.70
21123;DHT22;10719;48.130;11.630;2024-03-25T12:25:37;17.40;99.90
21123;DHT22;10719;48.130;11.630;2024-03-25T12:28:08;17.30;99.90
21123;DHT22;10719;48.130;11.630;2024-03-25T12:30:52;17.70;99.90
21123;DHT22;10719;48.130;11.630;2024-03-25T12:33:18;19.30;99.90
21123;DHT22;10719;48.130;11.630;2024-03-25T12:35:48;17.70;99.00
21123;DHT22;10719;48.130;11.630;2024-03-25T12:38:23;18.70;98.90
21123;DHT22;10719;48.130;11.630;2024-03-25T12:40:49;17.70;99.50
21123;DHT22;10719;48.130;11.630;2024-03-25T12:43:17;18.70;98.30
21123;DHT22;10719;48.130;11.630;2024-03-25T12:45:43;18.60;95.50
21123;DHT22;10719;48.130;11.630;2024-03-25T12:48:10;17.50;95.10
21123;DHT22;10719;48.130;11.630;2024-03-25T12:50:36;18.20;96.00
21123;DHT22;10719;48.130;11.630;2024-03-25T12:53:02;18.80;95.40
21123;DHT22;10719;48.130;11.630;2024-03-25T12:55:31;19.90;94.80
21123;DHT22;10719;48.130;11.630;2024-03-25T12:57:57;19.30;93.20
21123;DHT22;10719;48.130;11.630;2024-03-25T13:00:23;18.80;94.90
21123;DHT22;10719;48.130;11.630;2024-03-25T13:02:49;20.20;97.90
21123;DHT22;10719;48.130;11.630;2024-03-25T13:05:15;20.70;96.40
21123;DHT22;10719;48.130;11.630;2024-03-25T13:07:40;19.60;95.80
21123;DHT22;10719;48.130;11.630;2024-03-25T13:10:06;19.50;97.70
21123;DHT22;10719;48.130;11.630;2024-03-25T13:12:32;17.00;97.70
21123;DHT22;10719;48.130;11.630;2024-03-25T13:14:57;16.80;98.70
21123;DHT22;10719;48.130;11.630;2024-03-25T13:17:24;17.10;97.00
21123;DHT22;10719;48.130;11.630;2024-03-25T13:19:50;17.70;95.60
21123;DHT22;10719;48.130;11.630;2024-03-25T13:22:16;18.30;99.50
21123;DHT22;10719;48.130;11.630;2024-03-25T13:24:41;17.40;95.70
21123;DHT22;10719;48.130;11.630;2024-03-25T13:27:07;17.40;96.00
21123;DHT22;10719;48.130;11.630;2024-03-25T13:29:33;17.90;95.60
21123;DHT22;10719;48.130;11.630;2024-03-25T13:32:01;18.30;96.40
21123;DHT22;10719;48.130;11.630;2024-03-25T13:34:27;19.10;95.50
21123;DHT22;10719;48.130;11.630;2024-03-25T13:36:52;19.50;94.00
21123;DHT22;10719;48.130;11.630;2024-03-25T13:39:18;19.70;95.50
21123;DHT22;10719;48.130;11.630;2024-03-25T13:41:44;18.40;94.60
21123;DHT22;10719;48.130;11.630;2024-03-25T13:44:11;18.60;97.10
21123;DHT22;10719;48.130;11.630;2024-03-25T13:46:36;18.50;95.60
21123;DHT22;10719;48.130;11.630;2024-03-25T13:49:02;19.80;95.80
21123;DHT22;10719;48.130;11.630;2024-03-25T13:51:27;20.00;95.40
21123;DHT22;10719;48.130;11.630;2024-03-25T13:53:53;20.30;95.90
21123;DHT22;10719;48.130;11.630;2024-03-25T13:56:19;21.20;95.30
21123;DHT22;10719;48.130;11.630;2024-03-25T13:58:44;20.70;96.50
21123;DHT22;10719;48.130;11.630;2024-03-25T14:01:10;19.90;94.30
21123;DHT22;10719;48.130;11.630;2024-03-25T14:03:36;20.10;95.40
21123;DHT22;10719;48.130;11.630;2024-03-25T14:06:01;19.60;96.60
21123;DHT22;10719;48.130;11.630;2024-03-25T14:08:27;19.90;95.90
21123;DHT22;10719;48.130;11.630;2024-03-25T14:11:01;19.50;94.50
21123;DHT22;10719;48.130;11.630;2024-03-25T14:13:27;19.20;94.90
21123;DHT22;10719;48.130;11.630;2024-03-25T14:15:52;19.10;96.20
21123;DHT22;10719;48.130;11.630;2024-03-25T14:18:18;19.50;96.50
21123;DHT22;10719;48.130;11.630;2024-03-25T14:20:44;19.40;97.70
21123;DHT22;10719;48.130;11.630;2024-03-25T14:23:09;18.70;97.50
21123;DHT22;10719;48.130;11.630;2024-03-25T14:25:35;18.50;98.10
21123;DHT22;10719;48.130;11.630;2024-03-25T14:28:01;18.10;97.50
21123;DHT22;10719;48.130;11.630;2024-03-25T14:30:26;18.20;98.30
21123;DHT22;10719;48.130;11.630;2024-03-25T14:32:52;17.60;98.30
21123;DHT22;10719;48.130;11.630;2024-03-25T14:35:20;16.90;99.90
21123;DHT22;10719;48.130;11.630;2024-03-25T14:37:46;16.50;99.90
21123;DHT22;10719;48.130;11.630;2024-03-25T14:40:12;15.40;98.90
21123;DHT22;10719;48.130;11.630;2024-03-25T14:42:38;14.90;99.90
21123;DHT22;10719;48.130;11.630;2024-03-25T14:45:04;14.70;99.90
21123;DHT22;10719;48.130;11.630;2024-03-25T14:47:31;13.90;99.90
21123;DHT22;10719;48.130;11.630;2024-03-25T14:49:56;13.90;99.90
21123;DHT22;10719;48.130;11.630;2024-03-25T14:52:23;13.40;99.90
21123;DHT22;10719;48.130;11.630;2024-03-25T14:54:48;13.00;99.90
21123;DHT22;10719;48.130;11.630;2024-03-25T14:57:14;12.60;99.90
21123;DHT22;10719;48.130;11.630;2024-03-25T14:59:39;12.80;99.90
21123;DHT22;10719;48.130;11.630;2024-03-25T15:02:05;12.60;99.90
21123;DHT22;10719;48.130;11.630;2024-03-25T15:04:31;12.70;99.90
21123;DHT22;10719;48.130;11.630;2024-03-25T15:06:57;13.00;99.90
21123;DHT22;10719;48.130;11.630;2024-03-25T15:09:23;13.20;99.90
21123;DHT22;10719;48.130;11.630;2024-03-25T15:11:49;13.40;99.90
21123;DHT22;10719;48.130;11.630;2024-03-25T15:14:14;13.80;99.90
21123;DHT22;10719;48.130;11.630;2024-03-25T15:16:40;14.00;99.90
21123;DHT22;10719;48.130;11.630;2024-03-25T15:19:06;13.80;99.90
21123;DHT22;10719;48.130;11.630;2024-03-25T15:21:33;13.50;99.90
21123;DHT22;10719;48.130;11.630;2024-03-25T15:23:59;13.20;99.90